AirNav   Air Wisconsin Up To $57,000 Bonus
 
 916 users online  

KHLR Hood AHP Airport
Fort Hood (Killeen), Texas, USA

GOING TO FORT HOOD (KILLEEN)?


FAA INFORMATION EFFECTIVE 15 JULY 2021

Location

FAA Identifier: HLR
Lat/Long: 31-08-19.4658N 097-42-52.1488W
31-08.324430N 097-42.869147W
31.1387405,-97.7144858
(estimated)
Elevation: 923.4 ft. / 281 m (estimated)
Variation: 05E (2010)
From city: 1 mile NE of FORT HOOD(KILLEEN), TX
Time zone: UTC -5 (UTC -6 during Standard Time)
Zip code: 76544

Airport Operations

Airport use: Private use. Permission required prior to landing
Control tower: yes
ARTCC: FORT WORTH CENTER
FSS: SAN ANGELO FLIGHT SERVICE STATION
NOTAMs facility: SJT (NOTAM-D service available)
Attendance: MON-FRI 1400-0600Z++, EXC HOL
Segmented circle: no
Lights: LGT-MIRL RWY 16-34 OPR 1400-0600++ WKD EXC FED HOL OT PCL 119.65.
Beacon: white-white-green (lighted military airport)
Operates sunset to sunrise.

Airport Communications

HOOD GROUND: 133.85 225.4 [OPR 1400-0600Z++ MON-FRI EXC HOL, OT CTC ROBERT GRAY TWR 120.75 285.5 AIRBORNE;133.85 225.4 ON GND.]
HOOD TOWER: 119.65 269.45 [OPR 1400-0600Z++ MON-FRI EXC HOL, OT CTC ROBERT GRAY TWR 120.75 285.5 AIRBORNE;133.85 225.4 ON GND.]
GRAY APPROACH: 120.075
GRAY DEPARTURE: 120.075
CLEARANCE DELIVERY: 225.4
EMERG: 121.5 243.0
FLT FLW: 141.175 357.9
PMSV METRO: 306.5
RANGE CTL: 30.45 38.3
WX AWOS-3PT at ILE (3 nm SE): 128.575 (254-690-3131)
WX AWOS-3PT at TPL (16 nm E): 134.975 (254-774-8337)
WX AWOS-3 at GOP (17 nm N): 119.725 (254-865-6742)
  • PMSV GRAY METRO: FOR REMOTE BRIEFING SVC CTC ROBERT GRAY AAF C254-288-9620, DSN 738-9620 OR 26 OWS, BARKSDALE AFB, C318-529-2651, DSN 331-2651. WX OBSN FULLY AUTOMATED VIA ASOS - C254-286-5692..

Nearby radio navigation aids

VOR radial/distance  VOR name  Freq  Var
GRKr032/8.1GRAY VOR/DME111.8007E
AGJr092/22.1GOOCH SPRINGS VORTAC112.5005E
ACTr207/38.8WACO VORTAC115.3009E

 
NDB name  Hdg/Dist  Freq  Var  ID
IRESH352/6.927805EIL .. .-..
ROBINSON233/39.740003EROB .-. --- -...

Airport Services

Runway Information

Runway 16/34

Dimensions: 3701 x 144 ft. / 1128 x 44 m
Surface: asphalt, in good condition
Weight bearing capacity: 
PCN 11 /F/B/W/T
Runway edge lights: medium intensity
RUNWAY 16  RUNWAY 34
Latitude: 31-08.616972N31-08.031888N
Longitude: 097-42.970382W097-42.767913W
Elevation: 923.1 ft.882.8 ft.
Traffic pattern: leftleft
Displaced threshold: 567 ft.no
Markings: nonprecision, in good conditionnonprecision, in good condition
RVR equipment: rollouttouchdown
Runway end identifier lights: nono
Touchdown point: yes, no lightsyes, no lights

Airport Ownership and Management from official FAA records

Ownership: U.S. Army
Owner: US ARMY AERONAUTICAL SVCS AGENCY
FT BELVOIR, VA 22060
Manager: Phone 254-553-0501

Additional Remarks

CAUTION: R6302 LCTD 1.1 NM N OF AFLD.
TRAN ALERT: LTD TRAN PRK.
RSTD: PPR ALL TRAN ACFT, C254-288-3811, DSN 738-3811 OR C254-287-7585 DSN 737-7585. RSTD FROM F/W ACFT.
MISC: NO TRML FCST ISSUED FOR HOOD AHP.
SEE FLIP AP/1 SUPPLEMENTARY ARPT RMK.
CAUTION: SOME ACFT OPR IN AREA WO CONSPICUOUS MRK AND BLEND WITH TERRAIN.
TFC PAT: LEFT AND RGT TFC ALT 1500'.
SERVICE - FUEL - A++. RAPID REFUEL OPR TIMES BY NOTAM.
PMSV GRAY METRO: WX OBSN FULLY AUTOMATED. MANUAL BACK-UP PRVDD FOR EQUIPMENT/COMMUNICATION FAILURE ONLY DURING AFLD OPERATING HRS.
H-1 AND TWY J CLSD 1200-1330Z++ MON-FRI EXC HOL.
CAUTION - EXTSV UAS ACT WI CLASS D ASP AND BTN ROBERT GRAY AAF AND R6302.
CAUTION: INST FINAL APCH CRS CROSS 1 NM SW KILLEEN MUNI.
CAUTION: INTS COPTER OPR VCNTY FT HOOD.
RSTD: NO BASE OPS SVC AVBL AT HOOD AHP, CTC ROBERT GRAY BASE OPS C254-288-9200, DSN 738-9200.
OIL: SOAP.

Instrument Procedures

NOTE: All procedures below are presented as PDF files. If you need a reader for these files, you should download the free Adobe Reader.

NOT FOR NAVIGATION. Please procure official charts for flight.
FAA instrument procedures published for use from 15 July 2021 at 0901Z to 12 August 2021 at 0900z.

 
IAPs - Instrument Approach Procedures
COPTER RNAV (GPS) RWY 34   download (106KB)
COPTER VOR 032   download (119KB)
COPTER NDB RWY 34   download (127KB)
 
Departure Procedures
CONRA TWO   download (179KB)
LAMPS SEVEN   download (198KB)
NOTE: Special Take-Off Minimums/Departure Procedures apply   download (315KB)

Other nearby airports with instrument procedures:

KILE - Skylark Field Airport (3 nm SE)
KGRK - Robert Gray Army Airfield (7 nm SW)
KTPL - Draughon-Miller Central Texas Regional Airport (16 nm E)
KLZZ - Lampasas Airport (25 nm W)
KGTU - Georgetown Municipal Airport (28 nm S)
 
Loc | Ops | Rwys | IFR | FBO | Links
Com | Nav | Svcs | Stats | Notes

City of Fort Worth
 
Area around KHLR (Hood AHP Airport)
 
Road maps at: MapQuest Bing Google
 
Aerial photo
No photo
 
Sectional chart

 
Airport distance calculator
Flying to Hood AHP Airport? Find the distance to fly.

From to KHLR

Sunrise and sunset
Times for 05-Aug-2021
 Local
(UTC-5)
 Zulu
(UTC)
Morning civil twilight06:2511:25
Sunrise06:5111:51
Sunset20:2201:22
Evening civil twilight20:4801:48

Current date and time
Zulu (UTC)  06-Aug-2021 03:15:37
Local (UTC-5)  05-Aug-2021 22:15:37
 
METAR
KHLR 060258Z AUTO 14006KT 9SM CLR 26/22 A3007 RMK AO2 SLP171 T02550220 52016
KILE 
5nm SE 
060256Z AUTO 14007KT 10SM CLR 26/23 A3007 RMK AO2 SLP171 T02560228 53014
KGRK 
7nm SW 
060256Z AUTO 14006KT 10SM CLR 24/22 A3005 RMK AO2 SLP166 T02430216 52015
KTPL 
16nm E 
060251Z AUTO 12006KT 10SM CLR 26/22 A3007 RMK AO2 SLP173 T02560222 53015
KGOP 
17nm N 
060255Z AUTO 00000KT 10SM CLR 25/22 A3009 RMK AO2
TAF
KGRK 
7nm SW 
060000Z 0600/0706 14009KT 9999 FEW040 QNH3001INS BECMG 0616/0617 VRB06KT 9999 BKN030 QNH3006INS BECMG 0618/0619 VRB06KT 9999 FEW055 QNH2996INS BECMG 0700/0701 14010G15KT 9999 SCT045 QNH2995INS TX32/0622Z TN22/0611Z
NOTAMs
Click for the latest NOTAMs
NOTAMs are issued by the DoD/FAA and will open in a separate window not controlled by AirNav.

 

 
 

Would you like to see your business listed on this page?

 If your business provides an interesting product or service to pilots, flight crews, aircraft, or users of the Hood AHP Airport, you should consider listing it here.  To start the listing process, click on the button below
 
Add a business
 

Other Pages about Hood AHP Airport

Update a link
 
Copyright © AirNav, LLC. All rights reserved. Privacy Policy  Contact